PWSweather.com
Personal Weather Stations
Station Observations
IONTARIO88
Lincoln, ON L0R

Lincoln, ON L0R

Lat: 43.1763563, Lon: -79.4719525

Elevation: 297

Station Type: Davis Vantage Pro 2 Plus

http://www.beamsvillewx.ca

High Low Average
Temperature 80.4°F26.9°C 59.5°F15.3°C 69.3°F20.7°C
Dew Point 55.9°F13.3°C 45.8°F7.7°C 50.7°F10.4°C
Winds 9.0 mph 14.5 kmh Calm Calm 5.0 mph SE8.0 kmh SE
Wind Gusts 21.0 mph33.8 kmh -- 11.0 mph17.7 kmh
Humidity 65% 39% 52%
Pressure 29.97 in1014.9 mb 29.82 in1009.8 mb -
Precipitation 0.00 in0.0 mm - -
Hour Temp Dew Point Humidity Winds Wind Gusts Pressure Precip Precip Rate Daily Precip Total
12:00 AM 66.6°F19.2°C 48.9°F9.4°C 53% 7.0 mph ESE11.3 kmh ESE 14.0 mph22.5 kmh 29.84 in1010.5 mb 0.00 in0.0 mm 0.00 in0.0 mm 0.00 in0.0 mm
12:15 AM 66.4°F19.1°C 48.7°F9.3°C 53% 5.0 mph SE8.0 kmh SE 11.0 mph17.7 kmh 29.84 in1010.5 mb 0.00 in0.0 mm 0.00 in0.0 mm 0.00 in0.0 mm
12:30 AM 66.0°F18.9°C 48.4°F9.1°C 53% 4.0 mph ESE6.4 kmh ESE 10.0 mph16.1 kmh 29.84 in1010.5 mb 0.00 in0.0 mm 0.00 in0.0 mm 0.00 in0.0 mm
12:45 AM 65.8°F18.8°C 48.7°F9.3°C 54% 4.0 mph ESE6.4 kmh ESE 10.0 mph16.1 kmh 29.84 in1010.5 mb 0.00 in0.0 mm 0.00 in0.0 mm 0.00 in0.0 mm
01:00 AM 65.1°F18.4°C 49.0°F9.4°C 56% 4.0 mph ESE6.4 kmh ESE 11.0 mph17.7 kmh 29.85 in1010.8 mb 0.00 in0.0 mm 0.00 in0.0 mm 0.00 in0.0 mm
01:15 AM 64.4°F18.0°C 48.8°F9.3°C 57% 3.0 mph E4.8 kmh E 9.0 mph14.5 kmh 29.85 in1010.8 mb 0.00 in0.0 mm 0.00 in0.0 mm 0.00 in0.0 mm
01:30 AM 63.9°F17.7°C 48.8°F9.3°C 58% 2.0 mph ENE3.2 kmh ENE 11.0 mph17.7 kmh 29.84 in1010.5 mb 0.00 in0.0 mm 0.00 in0.0 mm 0.00 in0.0 mm
01:45 AM 63.3°F17.4°C 49.2°F9.6°C 60% 4.0 mph E6.4 kmh E 11.0 mph17.7 kmh 29.84 in1010.5 mb 0.00 in0.0 mm 0.00 in0.0 mm 0.00 in0.0 mm
02:00 AM 63.0°F17.2°C 48.9°F9.4°C 60% 3.0 mph E4.8 kmh E 9.0 mph14.5 kmh 29.83 in1010.2 mb 0.00 in0.0 mm 0.00 in0.0 mm 0.00 in0.0 mm
02:15 AM 63.0°F17.2°C 48.9°F9.4°C 60% 4.0 mph E6.4 kmh E 10.0 mph16.1 kmh 29.83 in1010.2 mb 0.00 in0.0 mm 0.00 in0.0 mm 0.00 in0.0 mm
02:30 AM 63.1°F17.3°C 48.6°F9.2°C 59% 4.0 mph E6.4 kmh E 10.0 mph16.1 kmh 29.83 in1010.2 mb 0.00 in0.0 mm 0.00 in0.0 mm 0.00 in0.0 mm
02:45 AM 63.5°F17.5°C 48.0°F8.9°C 57% 6.0 mph ESE9.7 kmh ESE 13.0 mph20.9 kmh 29.82 in1009.8 mb 0.00 in0.0 mm 0.00 in0.0 mm 0.00 in0.0 mm
03:00 AM 64.0°F17.8°C 47.5°F8.6°C 55% 7.0 mph ESE11.3 kmh ESE 14.0 mph22.5 kmh 29.83 in1010.2 mb 0.00 in0.0 mm 0.00 in0.0 mm 0.00 in0.0 mm
03:15 AM 64.8°F18.2°C 47.2°F8.4°C 53% 7.0 mph ESE11.3 kmh ESE 14.0 mph22.5 kmh 29.83 in1010.2 mb 0.00 in0.0 mm 0.00 in0.0 mm 0.00 in0.0 mm
03:30 AM 64.8°F18.2°C 47.2°F8.4°C 53% 6.0 mph ESE9.7 kmh ESE 20.0 mph32.2 kmh 29.83 in1010.2 mb 0.00 in0.0 mm 0.00 in0.0 mm 0.00 in0.0 mm
03:45 AM 64.8°F18.2°C 47.2°F8.4°C 53% 7.0 mph ESE11.3 kmh ESE 14.0 mph22.5 kmh 29.83 in1010.2 mb 0.00 in0.0 mm 0.00 in0.0 mm 0.00 in0.0 mm
04:00 AM 64.6°F18.1°C 47.6°F8.7°C 54% 6.0 mph ESE9.7 kmh ESE 12.0 mph19.3 kmh 29.83 in1010.2 mb 0.00 in0.0 mm 0.00 in0.0 mm 0.00 in0.0 mm
04:15 AM 63.9°F17.7°C 47.9°F8.8°C 56% 6.0 mph E9.7 kmh E 11.0 mph17.7 kmh 29.83 in1010.2 mb 0.00 in0.0 mm 0.00 in0.0 mm 0.00 in0.0 mm
04:30 AM 63.5°F17.5°C 47.5°F8.6°C 56% 6.0 mph E9.7 kmh E 11.0 mph17.7 kmh 29.83 in1010.2 mb 0.00 in0.0 mm 0.00 in0.0 mm 0.00 in0.0 mm
04:45 AM 63.3°F17.4°C 47.8°F8.8°C 57% 5.0 mph E8.0 kmh E 11.0 mph17.7 kmh 29.83 in1010.2 mb 0.00 in0.0 mm 0.00 in0.0 mm 0.00 in0.0 mm
05:00 AM 63.1°F17.3°C 48.1°F8.9°C 58% 6.0 mph E9.7 kmh E 14.0 mph22.5 kmh 29.84 in1010.5 mb 0.00 in0.0 mm 0.00 in0.0 mm 0.00 in0.0 mm
05:15 AM 62.2°F16.8°C 48.2°F9.0°C 60% 5.0 mph E8.0 kmh E 10.0 mph16.1 kmh 29.84 in1010.5 mb 0.00 in0.0 mm 0.00 in0.0 mm 0.00 in0.0 mm
05:30 AM 61.9°F16.6°C 47.8°F8.8°C 60% 5.0 mph E8.0 kmh E 12.0 mph19.3 kmh 29.85 in1010.8 mb 0.00 in0.0 mm 0.00 in0.0 mm 0.00 in0.0 mm
05:45 AM 61.7°F16.5°C 48.1°F8.9°C 61% 5.0 mph E8.0 kmh E 11.0 mph17.7 kmh 29.85 in1010.8 mb 0.00 in0.0 mm 0.00 in0.0 mm 0.00 in0.0 mm
06:00 AM 61.5°F16.4°C 48.4°F9.1°C 62% 4.0 mph E6.4 kmh E 9.0 mph14.5 kmh 29.85 in1010.8 mb 0.00 in0.0 mm 0.00 in0.0 mm 0.00 in0.0 mm
06:15 AM 61.3°F16.3°C 48.2°F9.0°C 62% 4.0 mph E6.4 kmh E 10.0 mph16.1 kmh 29.85 in1010.8 mb 0.00 in0.0 mm 0.00 in0.0 mm 0.00 in0.0 mm
06:30 AM 61.5°F16.4°C 48.8°F9.3°C 63% 4.0 mph E6.4 kmh E 11.0 mph17.7 kmh 29.86 in1011.2 mb 0.00 in0.0 mm 0.00 in0.0 mm 0.00 in0.0 mm
06:45 AM 62.1°F16.7°C 49.3°F9.6°C 63% 4.0 mph E6.4 kmh E 9.0 mph14.5 kmh 29.86 in1011.2 mb 0.00 in0.0 mm 0.00 in0.0 mm 0.00 in0.0 mm
07:00 AM 63.0°F17.2°C 49.7°F9.8°C 62% 5.0 mph E8.0 kmh E 11.0 mph17.7 kmh 29.86 in1011.2 mb 0.00 in0.0 mm 0.00 in0.0 mm 0.00 in0.0 mm
07:15 AM 63.7°F17.6°C 50.0°F10.0°C 61% 5.0 mph ESE8.0 kmh ESE 10.0 mph16.1 kmh 29.87 in1011.5 mb 0.00 in0.0 mm 0.00 in0.0 mm 0.00 in0.0 mm
07:30 AM 64.6°F18.1°C 50.4°F10.2°C 60% 6.0 mph ESE9.7 kmh ESE 12.0 mph19.3 kmh 29.87 in1011.5 mb 0.00 in0.0 mm 0.00 in0.0 mm 0.00 in0.0 mm
07:45 AM 65.1°F18.4°C 50.4°F10.2°C 59% 6.0 mph ESE9.7 kmh ESE 14.0 mph22.5 kmh 29.87 in1011.5 mb 0.00 in0.0 mm 0.00 in0.0 mm 0.00 in0.0 mm
08:00 AM 66.2°F19.0°C 50.5°F10.3°C 57% 6.0 mph SE9.7 kmh SE 14.0 mph22.5 kmh 29.87 in1011.5 mb 0.00 in0.0 mm 0.00 in0.0 mm 0.00 in0.0 mm
08:15 AM 67.1°F19.5°C 50.9°F10.5°C 56% 8.0 mph SE12.9 kmh SE 16.0 mph25.7 kmh 29.87 in1011.5 mb 0.00 in0.0 mm 0.00 in0.0 mm 0.00 in0.0 mm
08:30 AM 67.6°F19.8°C 51.4°F10.8°C 56% 6.0 mph SE9.7 kmh SE 17.0 mph27.4 kmh 29.88 in1011.9 mb 0.00 in0.0 mm 0.00 in0.0 mm 0.00 in0.0 mm
08:45 AM 68.4°F20.2°C 51.6°F10.9°C 55% 8.0 mph SE12.9 kmh SE 18.0 mph29.0 kmh 29.88 in1011.9 mb 0.00 in0.0 mm 0.00 in0.0 mm 0.00 in0.0 mm
09:00 AM 68.5°F20.3°C 52.2°F11.2°C 56% 8.0 mph SE12.9 kmh SE 20.0 mph32.2 kmh 29.88 in1011.9 mb 0.00 in0.0 mm 0.00 in0.0 mm 0.00 in0.0 mm
09:15 AM 68.5°F20.3°C 52.7°F11.5°C 57% 8.0 mph SE12.9 kmh SE 17.0 mph27.4 kmh 29.88 in1011.9 mb 0.00 in0.0 mm 0.00 in0.0 mm 0.00 in0.0 mm
09:30 AM 68.7°F20.4°C 52.4°F11.3°C 56% 8.0 mph SE12.9 kmh SE 17.0 mph27.4 kmh 29.89 in1012.2 mb 0.00 in0.0 mm 0.00 in0.0 mm 0.00 in0.0 mm
09:45 AM 69.4°F20.8°C 53.1°F11.7°C 56% 7.0 mph SSE11.3 kmh SSE 15.0 mph24.1 kmh 29.90 in1012.5 mb 0.00 in0.0 mm 0.00 in0.0 mm 0.00 in0.0 mm
10:00 AM 70.0°F21.1°C 54.0°F12.2°C 57% 7.0 mph SE11.3 kmh SE 15.0 mph24.1 kmh 29.90 in1012.5 mb 0.00 in0.0 mm 0.00 in0.0 mm 0.00 in0.0 mm
10:15 AM 70.3°F21.3°C 53.4°F11.9°C 55% 8.0 mph SE12.9 kmh SE 15.0 mph24.1 kmh 29.90 in1012.5 mb 0.00 in0.0 mm 0.00 in0.0 mm 0.00 in0.0 mm
10:30 AM 71.2°F21.8°C 53.2°F11.8°C 53% 8.0 mph SE12.9 kmh SE 18.0 mph29.0 kmh 29.90 in1012.5 mb 0.00 in0.0 mm 0.00 in0.0 mm 0.00 in0.0 mm
10:45 AM 71.8°F22.1°C 53.7°F12.1°C 53% 9.0 mph SE14.5 kmh SE 18.0 mph29.0 kmh 29.90 in1012.5 mb 0.00 in0.0 mm 0.00 in0.0 mm 0.00 in0.0 mm
11:00 AM 72.7°F22.6°C 54.0°F12.2°C 52% 8.0 mph SE12.9 kmh SE 17.0 mph27.4 kmh 29.90 in1012.5 mb 0.00 in0.0 mm 0.00 in0.0 mm 0.00 in0.0 mm
11:15 AM 73.6°F23.1°C 53.8°F12.1°C 50% 7.0 mph SE11.3 kmh SE 16.0 mph25.7 kmh 29.90 in1012.5 mb 0.00 in0.0 mm 0.00 in0.0 mm 0.00 in0.0 mm
11:30 AM 73.8°F23.2°C 54.0°F12.2°C 50% 8.0 mph SSE12.9 kmh SSE 15.0 mph24.1 kmh 29.90 in1012.5 mb 0.00 in0.0 mm 0.00 in0.0 mm 0.00 in0.0 mm
11:45 AM 74.7°F23.7°C 55.3°F12.9°C 51% 7.0 mph SE11.3 kmh SE 16.0 mph25.7 kmh 29.90 in1012.5 mb 0.00 in0.0 mm 0.00 in0.0 mm 0.00 in0.0 mm
12:00 PM 75.0°F23.9°C 55.1°F12.8°C 50% 7.0 mph S11.3 kmh S 14.0 mph22.5 kmh 29.90 in1012.5 mb 0.00 in0.0 mm 0.00 in0.0 mm 0.00 in0.0 mm
12:15 PM 75.0°F23.9°C 55.1°F12.8°C 50% 7.0 mph SSE11.3 kmh SSE 14.0 mph22.5 kmh 29.89 in1012.2 mb 0.00 in0.0 mm 0.00 in0.0 mm 0.00 in0.0 mm
12:30 PM 74.8°F23.8°C 54.9°F12.7°C 50% 9.0 mph SSE14.5 kmh SSE 17.0 mph27.4 kmh 29.89 in1012.2 mb 0.00 in0.0 mm 0.00 in0.0 mm 0.00 in0.0 mm
12:45 PM 75.0°F23.9°C 54.0°F12.2°C 48% 8.0 mph SSE12.9 kmh SSE 16.0 mph25.7 kmh 29.89 in1012.2 mb 0.00 in0.0 mm 0.00 in0.0 mm 0.00 in0.0 mm
01:00 PM 76.3°F24.6°C 55.1°F12.8°C 48% 6.0 mph SSE9.7 kmh SSE 15.0 mph24.1 kmh 29.89 in1012.2 mb 0.00 in0.0 mm 0.00 in0.0 mm 0.00 in0.0 mm
01:15 PM 76.5°F24.7°C 55.9°F13.3°C 49% 7.0 mph SSE11.3 kmh SSE 14.0 mph22.5 kmh 29.90 in1012.5 mb 0.00 in0.0 mm 0.00 in0.0 mm 0.00 in0.0 mm
01:30 PM 77.2°F25.1°C 54.8°F12.7°C 46% 8.0 mph SSE12.9 kmh SSE 15.0 mph24.1 kmh 29.90 in1012.5 mb 0.00 in0.0 mm 0.00 in0.0 mm 0.00 in0.0 mm
01:45 PM 78.4°F25.8°C 54.7°F12.6°C 44% 8.0 mph SSE12.9 kmh SSE 15.0 mph24.1 kmh 29.90 in1012.5 mb 0.00 in0.0 mm 0.00 in0.0 mm 0.00 in0.0 mm
02:00 PM 79.5°F26.4°C 53.8°F12.1°C 41% 9.0 mph SSE14.5 kmh SSE 21.0 mph33.8 kmh 29.90 in1012.5 mb 0.00 in0.0 mm 0.00 in0.0 mm 0.00 in0.0 mm
02:15 PM 79.3°F26.3°C 52.9°F11.6°C 40% 8.0 mph SSE12.9 kmh SSE 17.0 mph27.4 kmh 29.91 in1012.9 mb 0.00 in0.0 mm 0.00 in0.0 mm 0.00 in0.0 mm
02:30 PM 79.3°F26.3°C 54.9°F12.7°C 43% 9.0 mph SSE14.5 kmh SSE 17.0 mph27.4 kmh 29.91 in1012.9 mb 0.00 in0.0 mm 0.00 in0.0 mm 0.00 in0.0 mm
02:45 PM 80.1°F26.7°C 53.6°F12.0°C 40% 9.0 mph SSE14.5 kmh SSE 17.0 mph27.4 kmh 29.91 in1012.9 mb 0.00 in0.0 mm 0.00 in0.0 mm 0.00 in0.0 mm
03:00 PM 80.2°F26.8°C 53.0°F11.7°C 39% 9.0 mph SE14.5 kmh SE 17.0 mph27.4 kmh 29.91 in1012.9 mb 0.00 in0.0 mm 0.00 in0.0 mm 0.00 in0.0 mm
03:15 PM 80.2°F26.8°C 53.0°F11.7°C 39% 8.0 mph SSE12.9 kmh SSE 18.0 mph29.0 kmh 29.91 in1012.9 mb 0.00 in0.0 mm 0.00 in0.0 mm 0.00 in0.0 mm
03:30 PM 79.7°F26.5°C 53.2°F11.8°C 40% 9.0 mph SSE14.5 kmh SSE 17.0 mph27.4 kmh 29.90 in1012.5 mb 0.00 in0.0 mm 0.00 in0.0 mm 0.00 in0.0 mm
03:45 PM 80.4°F26.9°C 53.2°F11.8°C 39% 7.0 mph SSE11.3 kmh SSE 13.0 mph20.9 kmh 29.90 in1012.5 mb 0.00 in0.0 mm 0.00 in0.0 mm 0.00 in0.0 mm
04:00 PM 79.5°F26.4°C 53.1°F11.7°C 40% 9.0 mph SSE14.5 kmh SSE 17.0 mph27.4 kmh 29.90 in1012.5 mb 0.00 in0.0 mm 0.00 in0.0 mm 0.00 in0.0 mm
04:15 PM 79.3°F26.3°C 52.2°F11.2°C 39% 7.0 mph SSE11.3 kmh SSE 16.0 mph25.7 kmh 29.90 in1012.5 mb 0.00 in0.0 mm 0.00 in0.0 mm 0.00 in0.0 mm
04:30 PM 79.0°F26.1°C 51.9°F11.1°C 39% 7.0 mph SSE11.3 kmh SSE 13.0 mph20.9 kmh 29.90 in1012.5 mb 0.00 in0.0 mm 0.00 in0.0 mm 0.00 in0.0 mm
04:45 PM 78.4°F25.8°C 52.8°F11.6°C 41% 6.0 mph SE9.7 kmh SE 13.0 mph20.9 kmh 29.91 in1012.9 mb 0.00 in0.0 mm 0.00 in0.0 mm 0.00 in0.0 mm
05:00 PM 78.1°F25.6°C 51.8°F11.0°C 40% 7.0 mph SSE11.3 kmh SSE 15.0 mph24.1 kmh 29.91 in1012.9 mb 0.00 in0.0 mm 0.00 in0.0 mm 0.00 in0.0 mm
05:15 PM 78.1°F25.6°C 52.5°F11.4°C 41% 6.0 mph SSE9.7 kmh SSE 12.0 mph19.3 kmh 29.90 in1012.5 mb 0.00 in0.0 mm 0.00 in0.0 mm 0.00 in0.0 mm
05:30 PM 77.4°F25.2°C 52.5°F11.4°C 42% 6.0 mph SSE9.7 kmh SSE 14.0 mph22.5 kmh 29.90 in1012.5 mb 0.00 in0.0 mm 0.00 in0.0 mm 0.00 in0.0 mm
05:45 PM 77.2°F25.1°C 51.7°F10.9°C 41% 5.0 mph SSE8.0 kmh SSE 11.0 mph17.7 kmh 29.90 in1012.5 mb 0.00 in0.0 mm 0.00 in0.0 mm 0.00 in0.0 mm
06:00 PM 77.4°F25.2°C 51.1°F10.6°C 40% 6.0 mph SSE9.7 kmh SSE 12.0 mph19.3 kmh 29.90 in1012.5 mb 0.00 in0.0 mm 0.00 in0.0 mm 0.00 in0.0 mm
06:15 PM 77.4°F25.2°C 50.5°F10.3°C 39% 5.0 mph SSE8.0 kmh SSE 13.0 mph20.9 kmh 29.90 in1012.5 mb 0.00 in0.0 mm 0.00 in0.0 mm 0.00 in0.0 mm
06:30 PM 75.4°F24.1°C 53.7°F12.1°C 47% 4.0 mph S6.4 kmh S 9.0 mph14.5 kmh 29.91 in1012.9 mb 0.00 in0.0 mm 0.00 in0.0 mm 0.00 in0.0 mm
06:45 PM 72.1°F22.3°C 52.5°F11.4°C 50% 3.0 mph SW4.8 kmh SW 7.0 mph11.3 kmh 29.91 in1012.9 mb 0.00 in0.0 mm 0.00 in0.0 mm 0.00 in0.0 mm
07:00 PM 72.5°F22.5°C 50.5°F10.3°C 46% 1.0 mph SSW1.6 kmh SSW 5.0 mph8.0 kmh 29.91 in1012.9 mb 0.00 in0.0 mm 0.00 in0.0 mm 0.00 in0.0 mm
07:15 PM 73.0°F22.8°C 49.8°F9.9°C 44% Calm Calm 4.0 mph6.4 kmh 29.91 in1012.9 mb 0.00 in0.0 mm 0.00 in0.0 mm 0.00 in0.0 mm
07:30 PM 73.2°F22.9°C 49.4°F9.7°C 43% 1.0 mph SSW1.6 kmh SSW 4.0 mph6.4 kmh 29.93 in1013.5 mb 0.00 in0.0 mm 0.00 in0.0 mm 0.00 in0.0 mm
07:45 PM 73.2°F22.9°C 48.7°F9.3°C 42% Calm Calm 3.0 mph4.8 kmh 29.93 in1013.5 mb 0.00 in0.0 mm 0.00 in0.0 mm 0.00 in0.0 mm
08:00 PM 72.9°F22.7°C 47.8°F8.8°C 41% Calm Calm 2.0 mph3.2 kmh 29.93 in1013.5 mb 0.00 in0.0 mm 0.00 in0.0 mm 0.00 in0.0 mm
08:15 PM 72.1°F22.3°C 48.4°F9.1°C 43% Calm Calm 2.0 mph3.2 kmh 29.92 in1013.2 mb 0.00 in0.0 mm 0.00 in0.0 mm 0.00 in0.0 mm
08:30 PM 71.4°F21.9°C 49.0°F9.4°C 45% Calm Calm 1.0 mph1.6 kmh 29.92 in1013.2 mb 0.00 in0.0 mm 0.00 in0.0 mm 0.00 in0.0 mm
09:15 PM 68.0°F20.0°C 48.7°F9.3°C 50% Calm Calm -- 29.92 in1013.2 mb 0.00 in0.0 mm 0.00 in0.0 mm 0.00 in0.0 mm
09:30 PM 66.7°F19.3°C 49.1°F9.5°C 53% Calm Calm 3.0 mph4.8 kmh 29.93 in1013.5 mb 0.00 in0.0 mm 0.00 in0.0 mm 0.00 in0.0 mm
09:45 PM 65.7°F18.7°C 49.5°F9.7°C 56% Calm Calm 3.0 mph4.8 kmh 29.93 in1013.5 mb 0.00 in0.0 mm 0.00 in0.0 mm 0.00 in0.0 mm
10:00 PM 64.6°F18.1°C 49.9°F9.9°C 59% Calm Calm 1.0 mph1.6 kmh 29.94 in1013.9 mb 0.00 in0.0 mm 0.00 in0.0 mm 0.00 in0.0 mm
10:15 PM 63.3°F17.4°C 49.6°F9.8°C 61% 1.0 mph SSW1.6 kmh SSW 3.0 mph4.8 kmh 29.95 in1014.2 mb 0.00 in0.0 mm 0.00 in0.0 mm 0.00 in0.0 mm
10:30 PM 63.0°F17.2°C 48.9°F9.4°C 60% 1.0 mph SSW1.6 kmh SSW 4.0 mph6.4 kmh 29.95 in1014.2 mb 0.00 in0.0 mm 0.00 in0.0 mm 0.00 in0.0 mm
10:45 PM 62.4°F16.9°C 48.8°F9.3°C 61% Calm Calm -- 29.95 in1014.2 mb 0.00 in0.0 mm 0.00 in0.0 mm 0.00 in0.0 mm
11:00 PM 61.5°F16.4°C 49.2°F9.6°C 64% Calm Calm -- 29.95 in1014.2 mb 0.00 in0.0 mm 0.00 in0.0 mm 0.00 in0.0 mm
11:15 PM 61.0°F16.1°C 48.7°F9.3°C 64% Calm Calm -- 29.95 in1014.2 mb 0.00 in0.0 mm 0.00 in0.0 mm 0.00 in0.0 mm
11:30 PM 60.6°F15.9°C 48.8°F9.3°C 65% Calm Calm -- 29.95 in1014.2 mb 0.00 in0.0 mm 0.00 in0.0 mm 0.00 in0.0 mm
11:45 PM 60.4°F15.8°C 48.6°F9.2°C 65% Calm Calm -- 29.96 in1014.6 mb 0.00 in0.0 mm 0.00 in0.0 mm 0.00 in0.0 mm